map of WUX home
Great Circle Mapper logo
WUX - Airport
Location
City:  Wuxi, Jiangsu, China
Near (Alt.):Suzhou
Name:Sunan Shuofang International Airport
ICAO / IATA:ZSWX / WUX

Details
Type:Airport (Aerodrome, Airfield)
Use:International (customs port of entry)
Latitude:3129'50"N (31.497222)
Longitude:12025'50"E (120.430556)
Elevation:16 ft (5 m)
Runways:1
Longest:10499 × 164 ft (3200 × 50 m), paved

Time
Time Zone:UTC+8
Local Time:

Weather
TAF:ZSWX 020706Z 021212 36004MPS 6000 NSC TX28/06Z TN20/22Z

Related Locations
Nearby:
Farthest:PRA: 12384 mi / 19931 km
Parana [General Urquiza], AR

Find:

   beyond  
but within

Other Information
Maps:
NOTAMs:
Links:
Sources:

  
flag of China   

Sectional Chart

Flight Planning
at skyvector.com

Satellite Image

Google Maps Satellite View

 

Copyright © 2004-2014 Karl L. Swartz. All rights reserved.
The Great Circle Mapper name and logo are trademarks of the Great Circle Mapper.
All other trademarks mentioned herein belong to their respective owners.
Please see credits for attibutions and further copyright information.

  Follow gcmap on Facebook Follow gcmap on Twitter

hCard Microformat

Geo Microformat